createdAt,value
2023-05-15T00:00:32.378Z,41.67
2023-05-15T00:05:31.376Z,41.17
2023-05-15T00:08:01.145Z,43.65
2023-05-15T00:10:30.834Z,41.58
2023-05-15T00:13:00.435Z,41.28
2023-05-15T00:15:30.237Z,42.85
2023-05-15T00:17:59.909Z,42.30
2023-05-15T00:20:29.773Z,42.45
2023-05-15T00:23:00.347Z,46.33
2023-05-15T00:25:30.060Z,42.22
2023-05-15T00:27:59.631Z,45.72
2023-05-15T00:30:29.263Z,45.80
2023-05-15T00:32:59.123Z,40.42
2023-05-15T00:35:29.050Z,37.10
2023-05-15T00:37:58.678Z,40.88
2023-05-15T00:40:29.040Z,39.45
2023-05-15T00:42:59.211Z,39.60
2023-05-15T00:47:58.876Z,37.63
2023-05-15T00:50:28.874Z,39.50
2023-05-15T00:52:58.591Z,40.92
2023-05-15T00:55:29.080Z,37.78
2023-05-15T00:57:59.166Z,35.45
2023-05-15T01:02:57.959Z,43.30
2023-05-15T01:05:27.886Z,40.72
2023-05-15T01:08:12.577Z,40.20
2023-05-15T01:10:42.570Z,40.65
2023-05-15T01:13:12.325Z,38.92
2023-05-15T01:15:41.952Z,40.38
2023-05-15T01:18:11.764Z,39.00
2023-05-15T01:20:53.423Z,37.03
2023-05-15T01:23:43.192Z,36.35
2023-05-15T01:26:25.763Z,34.22
2023-05-15T01:28:59.823Z,39.92
2023-05-15T01:32:00.092Z,39.15
2023-05-15T01:34:34.019Z,36.17
2023-05-15T01:37:06.131Z,35.58
2023-05-15T01:39:36.571Z,38.60
2023-05-15T01:42:06.240Z,38.58
2023-05-15T01:44:38.753Z,39.05
2023-05-15T01:47:11.592Z,37.05
2023-05-15T01:49:41.396Z,39.55
2023-05-15T01:52:24.107Z,38.03
2023-05-15T01:54:54.485Z,37.35
2023-05-15T01:57:25.294Z,38.83
2023-05-15T01:59:56.026Z,36.50
2023-05-15T02:02:25.843Z,36.38
2023-05-15T02:04:55.717Z,38.10
2023-05-15T02:07:25.676Z,38.25
2023-05-15T02:12:25.207Z,39.85
2023-05-15T02:14:54.616Z,42.15
2023-05-15T02:17:25.420Z,39.58
2023-05-15T02:19:55.157Z,39.30
2023-05-15T02:22:24.791Z,38.80
2023-05-15T02:24:54.982Z,38.83
2023-05-15T02:27:29.602Z,40.83
2023-05-15T02:30:02.356Z,37.45
2023-05-15T02:32:43.750Z,43.00
2023-05-15T02:35:22.271Z,39.72
2023-05-15T02:37:53.817Z,43.38
2023-05-15T02:40:23.846Z,42.38
2023-05-15T02:42:55.828Z,42.65
2023-05-15T02:45:27.180Z,43.22
2023-05-15T02:47:57.245Z,43.85
2023-05-15T02:53:04.498Z,43.87
2023-05-15T02:55:34.477Z,44.92
2023-05-15T02:58:04.045Z,44.63
2023-05-15T03:00:33.883Z,45.25
2023-05-15T03:05:32.522Z,49.60
2023-05-15T03:08:02.996Z,43.78
2023-05-15T03:10:32.617Z,46.10
2023-05-15T03:13:02.332Z,46.88
2023-05-15T03:15:31.972Z,50.53
2023-05-15T03:18:01.596Z,48.92
2023-05-15T03:20:31.257Z,47.28
2023-05-15T03:23:00.838Z,46.67
2023-05-15T03:25:30.572Z,45.13
2023-05-15T03:30:29.288Z,47.53
2023-05-15T03:32:59.539Z,44.97
2023-05-15T03:35:29.303Z,45.95
2023-05-15T03:40:28.153Z,48.08
2023-05-15T03:42:57.877Z,45.30
2023-05-15T03:47:57.385Z,45.55
2023-05-15T03:50:27.262Z,44.20
2023-05-15T03:53:03.908Z,43.30
2023-05-15T03:55:33.505Z,42.47
2023-05-15T03:58:03.312Z,41.90
2023-05-15T04:03:02.123Z,38.35
2023-05-15T04:05:32.091Z,36.72
2023-05-15T04:08:01.719Z,39.50
2023-05-15T04:10:31.388Z,33.22
2023-05-15T04:15:39.433Z,32.00
2023-05-15T04:18:09.036Z,32.83
2023-05-15T04:20:39.913Z,33.72
2023-05-15T04:23:09.555Z,37.17
2023-05-15T04:29:05.088Z,28.55
2023-05-15T04:31:40.551Z,31.95
2023-05-15T04:34:31.448Z,31.00
2023-05-15T04:37:20.771Z,31.40
2023-05-15T04:39:50.548Z,32.47
2023-05-15T04:42:20.769Z,30.77
2023-05-15T04:44:51.256Z,27.60
2023-05-15T04:47:25.059Z,27.33
2023-05-15T04:49:55.861Z,26.48
2023-05-15T04:52:25.393Z,26.60
2023-05-15T04:55:02.626Z,25.73
2023-05-15T04:57:33.020Z,25.55
2023-05-15T05:00:02.953Z,26.23
2023-05-15T05:02:32.571Z,26.30
2023-05-15T05:10:59.643Z,25.75
2023-05-15T05:13:29.308Z,25.40
2023-05-15T05:19:04.613Z,24.13
2023-05-15T05:21:34.964Z,25.20
2023-05-15T05:24:04.219Z,26.55
2023-05-15T05:26:33.862Z,27.27
2023-05-15T05:31:32.793Z,27.80
2023-05-15T05:34:02.621Z,25.90
2023-05-15T05:36:32.861Z,26.00
2023-05-15T05:39:03.738Z,26.55
2023-05-15T05:41:33.496Z,23.95
2023-05-15T05:46:32.502Z,25.15
2023-05-15T05:49:02.215Z,23.27
2023-05-15T05:54:00.911Z,26.55
2023-05-15T05:59:01.145Z,25.92
2023-05-15T06:01:30.991Z,24.90
2023-05-15T06:04:00.847Z,25.35
2023-05-15T06:06:30.528Z,28.15
2023-05-15T06:11:29.202Z,25.33
2023-05-15T06:16:28.515Z,31.77
2023-05-15T06:18:58.349Z,26.20
2023-05-15T06:21:28.051Z,23.88
2023-05-15T06:26:28.354Z,25.80
2023-05-15T06:28:58.070Z,25.05
2023-05-15T06:33:57.107Z,25.08
2023-05-15T06:36:26.772Z,27.17
2023-05-15T06:41:25.490Z,26.05
2023-05-15T06:43:55.084Z,26.65
2023-05-15T06:46:24.805Z,25.88
2023-05-15T06:51:23.407Z,26.20
2023-05-15T06:56:22.145Z,25.08
2023-05-15T07:01:21.014Z,27.02
2023-05-15T07:03:50.896Z,26.13
2023-05-15T07:06:20.552Z,27.70
2023-05-15T07:11:19.279Z,27.90
2023-05-15T07:13:50.226Z,28.15
2023-05-15T07:16:23.675Z,27.17
2023-05-15T07:18:53.403Z,28.27
2023-05-15T07:21:23.188Z,27.23
2023-05-15T07:23:52.862Z,24.77
2023-05-15T07:26:34.339Z,27.48
2023-05-15T07:29:05.754Z,28.90
2023-05-15T07:31:35.655Z,28.13
2023-05-15T07:34:05.342Z,31.20
2023-05-15T07:39:05.315Z,25.77
2023-05-15T07:41:35.345Z,26.85
2023-05-15T07:44:05.149Z,31.27
2023-05-15T07:46:35.101Z,29.20
2023-05-15T07:49:04.981Z,28.52
2023-05-15T07:54:09.906Z,28.90
2023-05-15T07:56:39.649Z,29.95
2023-05-15T07:59:09.448Z,28.58
2023-05-15T08:01:39.405Z,30.75
2023-05-15T08:04:10.925Z,32.00
2023-05-15T08:06:42.607Z,32.78
2023-05-15T08:09:12.492Z,28.77
2023-05-15T08:11:43.432Z,31.90
2023-05-15T08:14:13.895Z,32.08
2023-05-15T08:16:44.744Z,31.25
2023-05-15T08:19:14.580Z,31.63
2023-05-15T08:21:45.080Z,31.30
2023-05-15T08:24:14.837Z,32.22
2023-05-15T08:26:44.984Z,33.10
2023-05-15T08:29:14.613Z,31.63
2023-05-15T08:34:13.391Z,34.65
2023-05-15T08:36:43.003Z,39.35
2023-05-15T08:41:53.825Z,40.05
2023-05-15T08:44:24.201Z,38.92
2023-05-15T08:46:55.468Z,39.20
2023-05-15T08:49:25.257Z,38.28
2023-05-15T08:51:55.013Z,38.83
2023-05-15T08:54:25.224Z,40.88
2023-05-15T08:56:55.655Z,38.03
2023-05-15T08:59:26.220Z,37.65
2023-05-15T09:01:56.755Z,34.88
2023-05-15T09:04:26.451Z,40.08
2023-05-15T09:07:00.102Z,36.35
2023-05-15T09:09:31.099Z,35.65
2023-05-15T09:12:03.413Z,35.10
2023-05-15T09:14:33.206Z,33.83
2023-05-15T09:17:03.076Z,33.75
2023-05-15T09:19:33.317Z,37.08
2023-05-15T09:22:25.695Z,35.63
2023-05-15T09:24:56.883Z,34.28
2023-05-15T09:27:27.613Z,35.95
2023-05-15T09:29:59.537Z,35.28
2023-05-15T09:32:30.158Z,36.20
2023-05-15T09:34:59.967Z,36.35
2023-05-15T09:37:34.658Z,35.50
2023-05-15T09:40:13.926Z,36.22
2023-05-15T09:42:43.712Z,36.72
2023-05-15T09:45:20.046Z,36.58
2023-05-15T09:47:49.890Z,37.78
2023-05-15T09:50:24.538Z,35.05
2023-05-15T09:52:54.633Z,35.42
2023-05-15T09:55:24.724Z,36.55
2023-05-15T09:58:10.746Z,36.35
2023-05-15T10:00:48.174Z,37.72
2023-05-15T10:03:20.351Z,37.28
2023-05-15T10:05:50.260Z,37.10
2023-05-15T10:08:32.516Z,37.15
2023-05-15T10:11:03.140Z,36.72
2023-05-15T10:13:34.517Z,37.75
2023-05-15T10:16:05.490Z,36.15
2023-05-15T10:18:36.927Z,37.83
2023-05-15T10:21:07.070Z,35.20
2023-05-15T10:23:39.505Z,36.67
2023-05-15T10:26:23.608Z,34.50
2023-05-15T10:28:53.981Z,37.63
2023-05-15T10:31:24.288Z,40.78
2023-05-15T10:33:54.590Z,37.35
2023-05-15T10:36:26.023Z,36.65
2023-05-15T10:38:56.310Z,37.10
2023-05-15T10:41:26.622Z,38.28
2023-05-15T10:43:56.905Z,36.42
2023-05-15T10:46:27.227Z,39.35
2023-05-15T10:48:57.409Z,37.53
2023-05-15T10:51:29.295Z,37.70
2023-05-15T10:53:59.636Z,37.80
2023-05-15T10:56:36.683Z,39.20
2023-05-15T10:59:10.328Z,38.92
2023-05-15T11:01:41.169Z,38.33
2023-05-15T11:04:12.250Z,41.65
2023-05-15T11:06:43.326Z,40.33
2023-05-15T11:09:27.381Z,38.85
2023-05-15T11:11:58.938Z,40.05
2023-05-15T11:14:29.628Z,42.17
2023-05-15T11:17:00.152Z,40.80
2023-05-15T11:19:36.727Z,45.35
2023-05-15T11:22:12.718Z,41.75
2023-05-15T11:24:55.696Z,47.53
2023-05-15T11:27:29.968Z,45.53
2023-05-15T11:30:11.763Z,49.20
2023-05-15T11:32:44.819Z,46.60
2023-05-15T11:35:15.281Z,43.88
2023-05-15T11:37:55.793Z,40.67
2023-05-15T11:40:32.139Z,41.65
2023-05-15T11:43:09.980Z,40.50
2023-05-15T11:45:40.599Z,38.47
2023-05-15T11:48:10.956Z,41.85
2023-05-15T11:50:40.733Z,44.13
2023-05-15T11:55:40.575Z,42.38
2023-05-15T11:58:20.045Z,42.63
2023-05-15T12:00:50.851Z,43.85
2023-05-15T12:03:22.089Z,40.25
2023-05-15T12:05:59.070Z,40.83
2023-05-15T12:08:34.811Z,41.53
2023-05-15T12:11:05.353Z,42.78
2023-05-15T12:13:35.895Z,42.28
2023-05-15T12:16:06.640Z,41.20
2023-05-15T12:18:36.784Z,40.20
2023-05-15T12:21:07.556Z,40.13
2023-05-15T12:23:37.456Z,39.03
2023-05-15T12:26:07.490Z,39.72
2023-05-15T12:28:38.311Z,39.78
2023-05-15T12:31:08.201Z,41.58
2023-05-15T12:33:37.946Z,40.05
2023-05-15T12:38:36.827Z,39.27
2023-05-15T12:41:06.514Z,41.78
2023-05-15T12:43:36.254Z,39.75
2023-05-15T12:48:35.460Z,43.73
2023-05-15T12:51:09.064Z,41.08
2023-05-15T12:53:41.063Z,41.97
2023-05-15T12:56:11.804Z,42.80
2023-05-15T12:58:41.683Z,42.38
2023-05-15T13:01:11.432Z,40.70
2023-05-15T13:03:41.645Z,41.38
2023-05-15T13:06:12.753Z,41.25
2023-05-15T13:08:45.858Z,43.00
2023-05-15T13:11:17.398Z,43.58
2023-05-15T13:13:48.482Z,46.22
2023-05-15T13:16:22.048Z,44.55
2023-05-15T13:18:52.114Z,42.78
2023-05-15T13:21:22.000Z,43.67
2023-05-15T13:26:27.772Z,43.63
2023-05-15T13:28:58.016Z,41.88
2023-05-15T13:31:28.177Z,42.50
2023-05-15T13:33:58.103Z,41.90
2023-05-15T13:36:27.688Z,41.47
2023-05-15T13:38:57.659Z,42.88
2023-05-15T13:41:27.706Z,44.03
2023-05-15T13:43:57.549Z,41.13
2023-05-15T13:48:56.309Z,44.07
2023-05-15T13:51:26.052Z,42.75
2023-05-15T13:53:55.680Z,41.38
2023-05-15T13:56:25.369Z,40.65
2023-05-15T13:58:55.058Z,40.58
2023-05-15T14:01:24.767Z,42.80
2023-05-15T14:03:54.573Z,40.22
2023-05-15T14:08:53.188Z,42.20
2023-05-15T14:11:24.352Z,40.50
2023-05-15T14:13:54.054Z,41.08
2023-05-15T14:16:23.732Z,38.00
2023-05-15T14:18:53.497Z,38.50
2023-05-15T14:21:23.557Z,39.42
2023-05-15T14:23:53.492Z,38.22
2023-05-15T14:26:23.565Z,41.20
2023-05-15T14:28:53.206Z,40.90
2023-05-15T14:31:22.937Z,40.83
2023-05-15T14:33:52.724Z,43.38
2023-05-15T14:36:22.339Z,45.67
2023-05-15T14:38:51.889Z,46.38
2023-05-15T14:41:21.657Z,46.47
2023-05-15T14:43:51.294Z,28.90
2023-05-15T14:46:21.031Z,31.92
2023-05-15T14:48:51.443Z,30.05
2023-05-15T14:51:21.025Z,32.25
2023-05-15T14:53:50.681Z,31.30
2023-05-15T14:56:20.308Z,31.25
2023-05-15T14:58:50.791Z,29.60
2023-05-15T15:01:23.541Z,32.55
2023-05-15T15:03:53.372Z,34.60
2023-05-15T15:06:23.026Z,33.92
2023-05-15T15:08:52.676Z,35.83
2023-05-15T15:11:22.648Z,33.88
2023-05-15T15:16:21.540Z,32.22
2023-05-15T15:18:51.302Z,29.48
2023-05-15T15:21:21.278Z,30.50
2023-05-15T15:23:50.838Z,27.55
2023-05-15T15:26:20.596Z,29.15
2023-05-15T15:28:50.243Z,27.42
2023-05-15T15:31:21.058Z,26.70
2023-05-15T15:33:51.298Z,27.45
2023-05-15T15:36:20.963Z,26.27
2023-05-15T15:38:50.638Z,22.60
2023-05-15T15:41:20.322Z,24.70
2023-05-15T15:43:49.948Z,23.45
2023-05-15T15:46:19.657Z,23.90
2023-05-15T16:03:57.094Z,23.55
2023-05-15T16:06:26.802Z,25.67
2023-05-15T16:08:56.364Z,27.33
2023-05-15T16:11:25.996Z,26.83
2023-05-15T16:13:55.596Z,29.98
2023-05-15T16:16:25.293Z,28.95
2023-05-15T16:18:55.093Z,30.05
2023-05-15T16:21:24.707Z,31.33
2023-05-15T16:23:54.280Z,29.63
2023-05-15T16:26:23.948Z,27.70
2023-05-15T16:28:53.616Z,30.95
2023-05-15T16:31:23.553Z,30.83
2023-05-15T16:33:53.800Z,30.08
2023-05-15T16:38:52.675Z,31.88
2023-05-15T16:41:23.243Z,32.13
2023-05-15T16:43:52.961Z,32.95
2023-05-15T16:46:23.082Z,34.80
2023-05-15T16:48:52.660Z,34.72
2023-05-15T16:51:23.021Z,33.47
2023-05-15T16:53:54.138Z,36.42
2023-05-15T16:56:24.305Z,34.05
2023-05-15T17:01:24.335Z,36.45
2023-05-15T17:03:54.152Z,39.28
2023-05-15T17:06:23.792Z,40.03
2023-05-15T17:08:53.499Z,36.97
2023-05-15T17:11:23.295Z,41.97
2023-05-15T17:13:53.768Z,36.85
2023-05-15T17:16:23.409Z,37.83
2023-05-15T17:18:53.210Z,39.38
2023-05-15T17:21:22.803Z,40.88
2023-05-15T17:23:55.704Z,34.67
2023-05-15T17:26:25.281Z,37.53
2023-05-15T17:28:54.831Z,38.90
2023-05-15T17:31:24.667Z,39.75
2023-05-15T17:33:54.214Z,40.67
2023-05-15T17:36:23.792Z,40.03
2023-05-15T17:38:54.009Z,38.15
2023-05-15T17:43:53.245Z,39.22
2023-05-15T17:46:22.912Z,40.92
2023-05-15T17:48:52.623Z,38.05
2023-05-15T17:51:22.342Z,35.17
2023-05-15T17:53:51.983Z,32.88
2023-05-15T17:56:21.604Z,34.25
2023-05-15T17:58:51.248Z,37.45
2023-05-15T18:01:21.574Z,38.35
2023-05-15T18:03:51.389Z,39.58
2023-05-15T18:06:21.023Z,39.78
2023-05-15T18:08:50.585Z,42.35
2023-05-15T18:11:22.337Z,41.53
2023-05-15T18:13:52.481Z,42.80
2023-05-15T18:16:22.354Z,42.42
2023-05-15T18:18:53.836Z,39.05
2023-05-15T18:21:23.520Z,37.22
2023-05-15T18:23:53.134Z,38.63
2023-05-15T18:26:22.911Z,40.00
2023-05-15T18:28:52.622Z,35.15
2023-05-15T18:31:22.343Z,36.53
2023-05-15T18:33:52.020Z,36.22
2023-05-15T18:36:21.576Z,36.70
2023-05-15T18:38:51.314Z,34.13
2023-05-15T18:41:20.943Z,34.40
2023-05-15T18:43:50.563Z,35.53
2023-05-15T18:46:20.332Z,33.97
2023-05-15T18:48:50.145Z,34.72
2023-05-15T18:51:19.922Z,35.47
2023-05-15T18:53:49.509Z,34.42
2023-05-15T18:56:19.113Z,34.35
2023-05-15T18:58:48.951Z,31.65
2023-05-15T19:01:18.657Z,31.55
2023-05-15T19:03:48.414Z,32.80
2023-05-15T19:06:21.407Z,38.25
2023-05-15T19:08:54.011Z,48.13
2023-05-15T19:11:23.693Z,54.80
2023-05-15T19:13:53.460Z,57.15
2023-05-15T19:16:23.332Z,44.17
2023-05-15T19:18:53.035Z,37.38
2023-05-15T19:21:25.859Z,37.80
2023-05-15T19:23:55.435Z,39.13
2023-05-15T19:26:25.004Z,38.47
2023-05-15T19:28:54.619Z,42.72
2023-05-15T19:31:31.298Z,42.30
2023-05-15T19:34:02.374Z,50.03
2023-05-15T19:36:32.852Z,42.35
2023-05-15T19:39:03.201Z,38.53
2023-05-15T19:41:32.864Z,39.28
2023-05-15T19:44:02.483Z,42.33
2023-05-15T19:46:32.467Z,39.40
2023-05-15T19:49:02.597Z,36.88
2023-05-15T19:51:33.068Z,38.97
2023-05-15T19:54:03.690Z,38.83
2023-05-15T19:56:33.292Z,39.88
2023-05-15T19:59:02.940Z,39.55
2023-05-15T20:01:32.777Z,37.92
2023-05-15T20:04:02.619Z,37.72
2023-05-15T20:06:32.341Z,40.40
2023-05-15T20:09:02.176Z,38.28
2023-05-15T20:11:32.629Z,40.50
2023-05-15T20:14:02.425Z,40.70
2023-05-15T20:16:32.201Z,40.97
2023-05-15T20:19:01.899Z,45.90
2023-05-15T20:21:33.852Z,44.10
2023-05-15T20:24:03.431Z,42.17
2023-05-15T20:26:33.190Z,42.35
2023-05-15T20:29:02.948Z,40.63
2023-05-15T20:31:32.574Z,44.30
2023-05-15T20:34:02.476Z,41.38
2023-05-15T20:36:34.079Z,42.85
2023-05-15T20:39:07.553Z,42.47
2023-05-15T20:41:38.601Z,39.88
2023-05-15T20:44:08.405Z,41.45
2023-05-15T20:46:41.540Z,41.47
2023-05-15T20:49:12.653Z,44.67
2023-05-15T20:51:45.980Z,42.25
2023-05-15T20:54:16.205Z,43.00
2023-05-15T20:59:14.870Z,41.10
2023-05-15T21:01:44.656Z,43.13
2023-05-15T21:04:16.553Z,45.63
2023-05-15T21:06:47.250Z,47.42
2023-05-15T21:09:18.406Z,43.65
2023-05-15T21:11:48.972Z,42.70
2023-05-15T21:14:18.687Z,43.47
2023-05-15T21:16:48.324Z,43.38
2023-05-15T21:19:18.152Z,43.83
2023-05-15T21:21:47.827Z,40.95
2023-05-15T21:24:17.581Z,45.15
2023-05-15T21:26:47.349Z,44.85
2023-05-15T21:29:18.145Z,45.90
2023-05-15T21:31:47.776Z,45.17
2023-05-15T21:34:17.410Z,40.30
2023-05-15T21:36:47.061Z,39.30
2023-05-15T21:39:16.911Z,39.70
2023-05-15T21:41:47.195Z,38.85
2023-05-15T21:46:45.994Z,41.25
2023-05-15T21:49:15.683Z,44.05
2023-05-15T21:51:45.323Z,42.58
2023-05-15T21:54:14.884Z,42.40
2023-05-15T21:56:44.448Z,40.90
2023-05-15T21:59:16.638Z,42.88
2023-05-15T22:01:46.375Z,40.33
2023-05-15T22:04:16.037Z,40.08
2023-05-15T22:06:45.640Z,41.10
2023-05-15T22:09:15.246Z,42.92
2023-05-15T22:11:44.925Z,48.78
2023-05-15T22:14:14.507Z,47.60
2023-05-15T22:16:44.229Z,48.00
2023-05-15T22:19:21.525Z,45.45
2023-05-15T22:22:01.916Z,48.38
2023-05-15T22:24:31.508Z,51.13
2023-05-15T22:27:01.200Z,48.67
2023-05-15T22:29:30.759Z,46.97
2023-05-15T22:32:00.535Z,47.17
2023-05-15T22:34:31.544Z,49.50
2023-05-15T22:37:01.181Z,43.67
2023-05-15T22:39:30.768Z,47.42
2023-05-15T22:42:00.357Z,42.83
2023-05-15T22:44:30.225Z,44.63
2023-05-15T22:47:01.168Z,45.45
2023-05-15T22:49:30.782Z,43.88
2023-05-15T22:52:01.626Z,43.70
2023-05-15T22:54:31.276Z,44.58
2023-05-15T22:57:00.963Z,43.45
2023-05-15T22:59:30.653Z,42.75
2023-05-15T23:02:00.370Z,46.95
2023-05-15T23:04:29.990Z,44.97
2023-05-15T23:06:59.903Z,47.97
2023-05-15T23:09:29.605Z,45.92
2023-05-15T23:11:59.212Z,47.45
2023-05-15T23:14:28.843Z,45.10
2023-05-15T23:16:58.520Z,44.17
2023-05-15T23:19:28.127Z,45.70
2023-05-15T23:21:58.094Z,47.15
2023-05-15T23:24:27.779Z,48.00
2023-05-15T23:26:57.423Z,49.75
2023-05-15T23:29:27.202Z,46.95
2023-05-15T23:31:58.526Z,44.50
2023-05-15T23:34:29.115Z,45.58
2023-05-15T23:36:59.074Z,49.22
2023-05-15T23:39:28.721Z,45.15
2023-05-15T23:41:59.027Z,44.22
2023-05-15T23:46:58.012Z,172.65
2023-05-15T23:49:27.842Z,107.65
2023-05-15T23:51:57.420Z,81.05
2023-05-15T23:54:27.590Z,61.00
2023-05-15T23:56:57.247Z,59.80
2023-05-15T23:59:27.521Z,53.33
